createdAt,value
2022-11-19T00:01:42.505Z,192.51
2022-11-19T00:03:56.283Z,196.60
2022-11-19T00:06:11.361Z,187.69
2022-11-19T00:08:21.012Z,197.04
2022-11-19T00:10:27.494Z,198.25
2022-11-19T00:12:45.704Z,197.35
2022-11-19T00:14:51.366Z,191.89
2022-11-19T00:16:58.025Z,184.36
2022-11-19T00:19:03.835Z,173.01
2022-11-19T00:21:16.501Z,149.21
2022-11-19T00:23:22.980Z,141.40
2022-11-19T00:25:31.648Z,129.13
2022-11-19T00:27:37.431Z,160.42
2022-11-19T00:29:43.934Z,158.65
2022-11-19T00:31:49.558Z,160.38
2022-11-19T00:33:55.307Z,163.34
2022-11-19T00:36:03.484Z,159.35
2022-11-19T00:38:11.865Z,157.01
2022-11-19T00:40:17.662Z,154.05
2022-11-19T00:42:24.693Z,158.70
2022-11-19T00:44:30.344Z,153.29
2022-11-19T00:46:39.790Z,152.73
2022-11-19T00:48:47.791Z,158.77
2022-11-19T00:50:55.458Z,156.44
2022-11-19T00:53:01.169Z,168.27
2022-11-19T00:55:12.318Z,169.03
2022-11-19T00:57:18.001Z,172.26
2022-11-19T00:59:23.689Z,178.37
2022-11-19T01:01:44.982Z,173.60
2022-11-19T01:03:52.154Z,180.89
2022-11-19T01:05:58.462Z,190.85
2022-11-19T01:08:05.086Z,193.38
2022-11-19T01:10:16.283Z,182.74
2022-11-19T01:12:22.028Z,193.10
2022-11-19T01:14:28.575Z,181.69
2022-11-19T01:16:43.765Z,173.49
2022-11-19T01:18:52.218Z,163.63
2022-11-19T01:20:59.023Z,158.49
2022-11-19T01:23:04.767Z,154.91
2022-11-19T01:25:16.891Z,156.65
2022-11-19T01:27:23.413Z,164.85
2022-11-19T01:29:29.311Z,163.86
2022-11-19T01:31:35.012Z,163.09
2022-11-19T01:33:41.757Z,158.57
2022-11-19T01:35:47.506Z,161.50
2022-11-19T01:37:56.334Z,169.26
2022-11-19T01:40:02.829Z,174.96
2022-11-19T01:42:40.055Z,171.41
2022-11-19T01:45:09.674Z,176.58
2022-11-19T01:47:16.617Z,180.15
2022-11-19T01:49:24.235Z,171.65
2022-11-19T01:51:39.614Z,174.33
2022-11-19T01:54:04.787Z,181.61
2022-11-19T01:56:20.699Z,175.31
2022-11-19T01:58:29.685Z,180.17
2022-11-19T02:00:37.153Z,185.54
2022-11-19T02:02:42.940Z,172.76
